Time;durP1;ratioP1;P1;durP2;ratioP2;P2;SDS_P1;SDS_P2;PMS_P1;PMS_P2;Temp;Humidity;BMP_temperature;BMP_pressure;BME280_temperature;BME280_humidity;BME280_pressure;Samples;Min_cycle;Max_cycle;Signal;HPM_P1;HPM_P2
2023/05/04 00:01:17;;;;;;;14.48;10.50;;;;;;;;;;4942349;29;20070;-87
2023/05/04 00:03:43;;;;;;;14.48;10.00;;;;;;;;;;4941657;29;20142;-89
2023/05/04 00:06:09;;;;;;;14.68;10.15;;;;;;;;;;4950825;29;20071;-87
2023/05/04 00:08:35;;;;;;;13.30;9.95;;;;;;;;;;4940318;29;20024;-87
2023/05/04 00:11:01;;;;;;;14.05;10.52;;;;;;;;;;4940032;29;20024;-87
2023/05/04 00:13:27;;;;;;;15.40;10.57;;;;;;;;;;4938973;29;20181;-87
2023/05/04 00:15:53;;;;;;;10.95;9.57;;;;;;;;;;4939071;29;20041;-87
2023/05/04 00:18:20;;;;;;;12.70;10.57;;;;;;;;;;4940018;29;20119;-86
2023/05/04 00:20:46;;;;;;;14.20;10.38;;;;;;;;;;4939819;29;20036;-87
2023/05/04 00:23:12;;;;;;;16.00;11.25;;;;;;;;;;4939180;29;20028;-87
2023/05/04 00:25:38;;;;;;;12.15;10.50;;;;;;;;;;4940121;29;20054;-87
2023/05/04 00:28:04;;;;;;;11.60;10.38;;;;;;;;;;4950099;29;20059;-87
2023/05/04 00:33:47;;;;;;;14.10;11.00;;;;;;;;;;4939863;29;20113;-87
2023/05/04 00:36:14;;;;;;;15.45;10.82;;;;;;;;;;4938779;29;20050;-89
2023/05/04 00:38:50;;;;;;;13.75;10.98;;;;;;;;;;4940331;29;20024;-87
2023/05/04 00:41:17;;;;;;;12.68;10.90;;;;;;;;;;4940148;29;20023;-87
2023/05/04 00:43:43;;;;;;;12.45;10.90;;;;;;;;;;4941166;29;20040;-88
2023/05/04 00:46:10;;;;;;;15.43;11.05;;;;;;;;;;4945328;29;20063;-88
2023/05/04 00:48:36;;;;;;;15.00;12.02;;;;;;;;;;4962291;29;20024;-88
2023/05/04 00:51:03;;;;;;;15.32;12.00;;;;;;;;;;4962571;29;20023;-87
2023/05/04 00:53:29;;;;;;;15.73;11.90;;;;;;;;;;4962376;29;20019;-86
2023/05/04 00:55:55;;;;;;;16.33;11.98;;;;;;;;;;4962276;29;20023;-86
2023/05/04 00:58:22;;;;;;;14.93;11.77;;;;;;;;;;4962444;29;20110;-88
2023/05/04 01:00:48;;;;;;;12.93;11.35;;;;;;;;;;4962260;29;20019;-88
2023/05/04 01:03:14;;;;;;;15.23;11.93;;;;;;;;;;4945096;29;20066;-88
2023/05/04 01:05:44;;;;;;;15.60;12.15;;;;;;;;;;4944767;29;20023;-88
2023/05/04 01:08:13;;;;;;;16.02;11.65;;;;;;;;;;4962067;29;20031;-88
2023/05/04 01:10:44;;;;;;;13.40;11.93;;;;;;;;;;4962061;29;20357;-89
2023/05/04 01:13:11;;;;;;;14.88;11.77;;;;;;;;;;4944970;29;20029;-87
2023/05/04 01:15:38;;;;;;;15.25;11.88;;;;;;;;;;4945063;29;20121;-86
2023/05/04 01:18:05;;;;;;;14.70;11.77;;;;;;;;;;4961470;29;20038;-87
2023/05/04 01:20:31;;;;;;;12.85;11.52;;;;;;;;;;4944534;29;20035;-88
2023/05/04 01:22:57;;;;;;;12.48;11.18;;;;;;;;;;4944848;29;20023;-87
2023/05/04 01:25:26;;;;;;;12.85;11.50;;;;;;;;;;4961692;29;20027;-88
2023/05/04 01:27:58;;;;;;;12.73;11.43;;;;;;;;;;4961784;29;20107;-88
2023/05/04 01:30:51;;;;;;;15.75;11.10;;;;;;;;;;4961859;29;20031;-87
2023/05/04 01:33:19;;;;;;;12.75;11.38;;;;;;;;;;4957879;29;20065;-88
2023/05/04 01:35:45;;;;;;;16.08;11.25;;;;;;;;;;4961752;29;20073;-88
2023/05/04 01:38:11;;;;;;;12.75;11.45;;;;;;;;;;4961155;29;20433;-88
2023/05/04 01:40:37;;;;;;;13.07;11.27;;;;;;;;;;4961648;29;20030;-87
2023/05/04 01:43:03;;;;;;;14.52;12.25;;;;;;;;;;4961233;29;20067;-88
2023/05/04 01:45:29;;;;;;;14.80;11.65;;;;;;;;;;4961226;29;20362;-88
2023/05/04 01:47:55;;;;;;;14.27;12.13;;;;;;;;;;4961432;29;20039;-88
2023/05/04 01:50:22;;;;;;;15.25;11.55;;;;;;;;;;4944237;29;20126;-88
2023/05/04 01:52:48;;;;;;;13.18;11.82;;;;;;;;;;4961121;29;20425;-88
2023/05/04 01:55:14;;;;;;;15.40;12.07;;;;;;;;;;4961053;28;20063;-88
2023/05/04 01:57:40;;;;;;;13.63;12.32;;;;;;;;;;4961134;29;20114;-89
2023/05/04 02:00:06;;;;;;;14.63;12.57;;;;;;;;;;4944048;29;20023;-88
2023/05/04 02:02:32;;;;;;;14.07;12.43;;;;;;;;;;4959462;29;20015;-89
2023/05/04 02:04:58;;;;;;;14.70;12.77;;;;;;;;;;4960532;29;20107;-89
2023/05/04 02:07:24;;;;;;;14.73;12.65;;;;;;;;;;4960744;29;20027;-88
2023/05/04 02:09:51;;;;;;;18.48;13.60;;;;;;;;;;4960793;29;20027;-86
2023/05/04 02:12:17;;;;;;;14.65;13.07;;;;;;;;;;4960954;29;20043;-87
2023/05/04 02:14:43;;;;;;;14.23;12.73;;;;;;;;;;4943826;29;20066;-87
2023/05/04 02:17:09;;;;;;;14.85;13.25;;;;;;;;;;4960668;29;20414;-88
2023/05/04 02:19:35;;;;;;;17.38;12.25;;;;;;;;;;4960695;29;20078;-88
2023/05/04 02:22:01;;;;;;;13.82;11.95;;;;;;;;;;4943636;29;20024;-86
2023/05/04 02:24:27;;;;;;;14.27;12.77;;;;;;;;;;4960145;29;20015;-86
2023/05/04 02:26:53;;;;;;;14.55;13.05;;;;;;;;;;4960689;29;20043;-86
2023/05/04 02:29:19;;;;;;;14.95;13.35;;;;;;;;;;4960657;29;20035;-86
2023/05/04 02:31:45;;;;;;;14.38;12.88;;;;;;;;;;4960484;29;20075;-86
2023/05/04 02:34:11;;;;;;;16.63;13.35;;;;;;;;;;4943589;29;20027;-87
2023/05/04 02:36:37;;;;;;;20.20;13.00;;;;;;;;;;4960290;29;20482;-87
2023/05/04 02:39:03;;;;;;;19.23;13.32;;;;;;;;;;4960242;29;20369;-87
2023/05/04 02:41:29;;;;;;;15.57;13.52;;;;;;;;;;4960440;29;20313;-90
2023/05/04 02:43:55;;;;;;;15.63;14.02;;;;;;;;;;4960380;29;20031;-87
2023/05/04 02:49:25;;;;;;;14.25;12.75;;;;;;;;;;4960330;29;20042;-87
2023/05/04 02:51:51;;;;;;;14.43;12.88;;;;;;;;;;4960105;29;20066;-87
2023/05/04 02:54:17;;;;;;;16.15;13.43;;;;;;;;;;4959944;29;20027;-88
2023/05/04 02:56:43;;;;;;;14.85;13.35;;;;;;;;;;4959904;29;20030;-87
2023/05/04 02:59:09;;;;;;;15.65;13.73;;;;;;;;;;4959895;29;20114;-87
2023/05/04 03:01:55;;;;;;;16.52;13.52;;;;;;;;;;4958243;29;20067;-87
2023/05/04 03:04:21;;;;;;;16.15;13.05;;;;;;;;;;4959441;29;20032;-88
2023/05/04 03:06:47;;;;;;;18.13;13.60;;;;;;;;;;4942682;29;20122;-88
2023/05/04 03:09:13;;;;;;;18.27;13.73;;;;;;;;;;4942703;29;20047;-87
2023/05/04 03:11:39;;;;;;;17.48;13.23;;;;;;;;;;4960019;29;20071;-87
2023/05/04 03:14:06;;;;;;;15.88;13.93;;;;;;;;;;4942962;29;20058;-87
2023/05/04 03:19:35;;;;;;;16.10;13.10;;;;;;;;;;4959687;29;20034;-87
2023/05/04 03:22:01;;;;;;;18.77;13.65;;;;;;;;;;4942550;29;20035;-87
2023/05/04 03:24:27;;;;;;;14.98;13.35;;;;;;;;;;4959926;29;20019;-87
2023/05/04 03:26:54;;;;;;;17.08;14.20;;;;;;;;;;4942255;29;20039;-89
2023/05/04 03:29:20;;;;;;;17.75;13.45;;;;;;;;;;4950813;29;20036;-85
2023/05/04 03:35:03;;;;;;;17.08;14.30;;;;;;;;;;4942430;29;20093;-81
2023/05/04 03:37:29;;;;;;;15.27;13.73;;;;;;;;;;4959088;29;20054;-92
2023/05/04 03:39:55;;;;;;;15.90;14.05;;;;;;;;;;4942170;29;20031;-87
2023/05/04 03:42:21;;;;;;;17.65;13.55;;;;;;;;;;4959401;29;20020;-88
2023/05/04 03:44:47;;;;;;;15.88;12.90;;;;;;;;;;4959529;29;20280;-88
2023/05/04 03:47:13;;;;;;;16.13;13.80;;;;;;;;;;4930859;29;20044;-88
2023/05/04 03:49:39;;;;;;;16.45;14.05;;;;;;;;;;4940245;29;20031;-88
2023/05/04 03:52:06;;;;;;;17.05;14.05;;;;;;;;;;4940530;29;20031;-87
2023/05/04 03:54:32;;;;;;;18.48;13.95;;;;;;;;;;4947123;29;20106;-88
2023/05/04 03:56:58;;;;;;;19.67;14.05;;;;;;;;;;4959575;29;20106;-89
2023/05/04 03:59:24;;;;;;;14.75;13.20;;;;;;;;;;4942486;29;20034;-88
2023/05/04 04:04:54;;;;;;;18.02;13.45;;;;;;;;;;4948380;29;20054;-90
2023/05/04 04:07:20;;;;;;;14.25;12.73;;;;;;;;;;4939333;29;20019;-89
2023/05/04 04:09:46;;;;;;;19.50;13.88;;;;;;;;;;4940392;29;20115;-90
2023/05/04 04:12:12;;;;;;;33.15;19.70;;;;;;;;;;4939184;29;20114;-89
2023/05/04 04:14:38;;;;;;;22.67;15.35;;;;;;;;;;4939120;29;20035;-90
2023/05/04 04:17:05;;;;;;;22.92;14.50;;;;;;;;;;4939969;29;20075;-89
2023/05/04 04:19:31;;;;;;;35.42;21.13;;;;;;;;;;4942297;29;20039;-90
2023/05/04 04:21:58;;;;;;;21.23;16.15;;;;;;;;;;4943708;29;20119;-88
2023/05/04 04:24:25;;;;;;;17.05;13.90;;;;;;;;;;4942579;29;20032;-87
2023/05/04 04:26:51;;;;;;;14.43;11.20;;;;;;;;;;4943573;29;20036;-88
2023/05/04 04:29:17;;;;;;;12.13;9.85;;;;;;;;;;4942490;29;20035;-87
2023/05/04 04:34:52;;;;;;;13.68;9.75;;;;;;;;;;4942383;29;20050;-87
2023/05/04 04:37:18;;;;;;;11.90;9.65;;;;;;;;;;4950983;29;20043;-88
2023/05/04 04:39:44;;;;;;;12.75;9.63;;;;;;;;;;4943582;29;20024;-87
2023/05/04 04:42:10;;;;;;;10.30;9.30;;;;;;;;;;4943141;29;20031;-88
2023/05/04 04:47:40;;;;;;;10.73;8.82;;;;;;;;;;4943475;29;20055;-88
2023/05/04 04:50:07;;;;;;;9.68;8.55;;;;;;;;;;4926322;29;20096;-88
2023/05/04 04:52:33;;;;;;;11.93;8.38;;;;;;;;;;4943006;29;20115;-87
2023/05/04 04:55:00;;;;;;;10.48;9.43;;;;;;;;;;4943334;29;20024;-87
2023/05/04 04:57:27;;;;;;;9.50;8.50;;;;;;;;;;4942833;29;20497;-87
2023/05/04 05:02:57;;;;;;;9.93;8.65;;;;;;;;;;4953280;29;20115;-88
2023/05/04 05:05:23;;;;;;;11.50;9.30;;;;;;;;;;4956692;29;20444;-88
2023/05/04 05:07:49;;;;;;;9.80;8.70;;;;;;;;;;4962180;29;20070;-89
2023/05/04 05:10:15;;;;;;;11.68;8.25;;;;;;;;;;4962054;29;20023;-89
2023/05/04 05:12:41;;;;;;;9.23;8.13;;;;;;;;;;4961806;29;20054;-89
2023/05/04 05:18:11;;;;;;;10.85;8.38;;;;;;;;;;4961681;29;20119;-89
2023/05/04 05:20:37;;;;;;;11.77;8.85;;;;;;;;;;4944928;29;20201;-89
2023/05/04 05:23:03;;;;;;;12.25;8.77;;;;;;;;;;4959296;29;20027;-90
2023/05/04 05:25:29;;;;;;;12.05;8.93;;;;;;;;;;4942109;29;20040;-88
2023/05/04 05:27:55;;;;;;;10.35;8.70;;;;;;;;;;4941357;29;20035;-89
2023/05/04 05:30:21;;;;;;;12.68;9.20;;;;;;;;;;4942316;29;20031;-89
2023/05/04 05:32:47;;;;;;;12.75;8.70;;;;;;;;;;4941520;29;20483;-88
2023/05/04 05:35:13;;;;;;;10.23;8.57;;;;;;;;;;4941107;29;20431;-89
2023/05/04 05:37:39;;;;;;;11.32;9.00;;;;;;;;;;4941463;29;20039;-90
2023/05/04 05:40:06;;;;;;;10.88;8.27;;;;;;;;;;4947170;29;20023;-90
2023/05/04 05:42:32;;;;;;;7.90;7.03;;;;;;;;;;4944553;29;20030;-90
2023/05/04 05:45:00;;;;;;;12.95;8.20;;;;;;;;;;4944263;29;20023;-91
2023/05/04 05:47:26;;;;;;;11.77;7.85;;;;;;;;;;4961538;29;20436;-90
2023/05/04 05:49:53;;;;;;;11.82;7.15;;;;;;;;;;4944190;29;20075;-90
2023/05/04 05:52:19;;;;;;;10.13;6.63;;;;;;;;;;4944166;29;20039;-89
2023/05/04 05:54:45;;;;;;;8.25;6.25;;;;;;;;;;4961392;29;20027;-90
2023/05/04 05:57:11;;;;;;;11.98;6.60;;;;;;;;;;4943882;29;20126;-89
2023/05/04 05:59:38;;;;;;;8.75;6.45;;;;;;;;;;4960449;29;20024;-90
2023/05/04 06:02:04;;;;;;;9.70;6.97;;;;;;;;;;4961307;29;20060;-90
2023/05/04 06:04:30;;;;;;;10.60;6.78;;;;;;;;;;4960947;29;20030;-90
2023/05/04 06:06:56;;;;;;;7.40;6.30;;;;;;;;;;4943308;29;20039;-90
2023/05/04 06:09:22;;;;;;;8.85;6.95;;;;;;;;;;4961189;29;20030;-90
2023/05/04 06:11:48;;;;;;;13.13;7.13;;;;;;;;;;4960747;29;20035;-88
2023/05/04 06:14:15;;;;;;;7.55;6.28;;;;;;;;;;4960966;29;20031;-88
2023/05/04 06:23:02;;;;;;;10.00;7.72;;;;;;;;;;4922440;29;20043;-88
2023/05/04 06:25:28;;;;;;;16.50;13.80;;;;;;;;;;4937402;29;20028;-89
2023/05/04 06:27:54;;;;;;;14.45;10.98;;;;;;;;;;4929164;29;20024;-89
2023/05/04 06:30:23;;;;;;;18.15;12.57;;;;;;;;;;4941210;29;20032;-89
2023/05/04 06:32:49;;;;;;;9.35;7.30;;;;;;;;;;4924419;29;20032;-89
2023/05/04 06:35:15;;;;;;;11.20;8.45;;;;;;;;;;4941307;29;20098;-89
2023/05/04 06:37:41;;;;;;;10.93;7.38;;;;;;;;;;4924335;29;20032;-89
2023/05/04 06:40:07;;;;;;;7.20;6.50;;;;;;;;;;4941527;29;20034;-89
2023/05/04 06:42:33;;;;;;;10.18;7.47;;;;;;;;;;4939445;29;20028;-89
2023/05/04 06:44:59;;;;;;;8.25;6.85;;;;;;;;;;4941243;29;20019;-90
2023/05/04 06:53:47;;;;;;;7.97;6.82;;;;;;;;;;4941358;29;20130;-89
2023/05/04 06:56:13;;;;;;;10.10;7.32;;;;;;;;;;4941888;29;20040;-87
2023/05/04 06:58:39;;;;;;;13.40;8.40;;;;;;;;;;4940664;29;20032;-88
2023/05/04 07:01:07;;;;;;;13.65;8.38;;;;;;;;;;4940887;29;20030;-88
2023/05/04 07:03:34;;;;;;;15.18;7.72;;;;;;;;;;4939827;29;20024;-89
2023/05/04 07:06:00;;;;;;;9.93;7.60;;;;;;;;;;4939909;29;20299;-89
2023/05/04 07:08:26;;;;;;;9.93;8.27;;;;;;;;;;4941171;29;20034;-88
2023/05/04 07:10:52;;;;;;;12.55;8.10;;;;;;;;;;4953435;29;20350;-87
2023/05/04 07:13:18;;;;;;;11.90;8.45;;;;;;;;;;4960058;29;20102;-88
2023/05/04 07:18:48;;;;;;;11.70;8.25;;;;;;;;;;4960028;29;20066;-88
2023/05/04 07:21:15;;;;;;;11.98;7.22;;;;;;;;;;4942633;29;20430;-88
2023/05/04 07:23:41;;;;;;;13.18;8.13;;;;;;;;;;4959940;29;20031;-88
2023/05/04 07:26:07;;;;;;;9.48;7.60;;;;;;;;;;4942221;29;20035;-89
2023/05/04 07:28:34;;;;;;;10.65;7.05;;;;;;;;;;4946246;29;20036;-89
2023/05/04 07:31:37;;;;;;;11.30;7.20;;;;;;;;;;4940715;29;20039;-89
2023/05/04 07:34:03;;;;;;;11.30;7.78;;;;;;;;;;4942071;29;20019;-88
2023/05/04 07:36:29;;;;;;;8.68;7.78;;;;;;;;;;4959308;29;20055;-87
2023/05/04 07:38:55;;;;;;;10.35;8.15;;;;;;;;;;4942593;29;20023;-89
2023/05/04 07:41:21;;;;;;;9.52;7.75;;;;;;;;;;4959317;29;20318;-88
2023/05/04 07:43:48;;;;;;;10.98;8.23;;;;;;;;;;4942420;29;20023;-88
2023/05/04 07:52:21;;;;;;;10.27;8.30;;;;;;;;;;4943405;29;20031;-88
2023/05/04 07:54:47;;;;;;;10.43;8.15;;;;;;;;;;4963123;29;20046;-88
2023/05/04 07:57:19;;;;;;;11.60;8.07;;;;;;;;;;4963488;29;20027;-90
2023/05/04 07:59:45;;;;;;;9.85;8.13;;;;;;;;;;4946253;29;20347;-91
2023/05/04 08:02:30;;;;;;;14.38;11.32;;;;;;;;;;4946132;29;20419;-87
2023/05/04 08:04:56;;;;;;;53.28;32.50;;;;;;;;;;4942907;29;20024;-86
2023/05/04 08:07:22;;;;;;;37.90;20.60;;;;;;;;;;4944011;29;20155;-85
2023/05/04 08:09:48;;;;;;;26.45;16.05;;;;;;;;;;4945972;29;20331;-85
2023/05/04 08:12:15;;;;;;;25.40;15.30;;;;;;;;;;4943531;29;20031;-85
2023/05/04 08:14:41;;;;;;;13.00;9.40;;;;;;;;;;4948969;29;20050;-85
2023/05/04 08:20:11;;;;;;;12.02;9.10;;;;;;;;;;4940017;29;20139;-85
2023/05/04 08:22:38;;;;;;;13.30;9.18;;;;;;;;;;4943603;29;20311;-84
2023/05/04 08:25:04;;;;;;;13.27;9.65;;;;;;;;;;4942466;29;20039;-85
2023/05/04 08:27:30;;;;;;;15.77;11.00;;;;;;;;;;4941624;29;20031;-84
2023/05/04 08:29:57;;;;;;;19.55;13.57;;;;;;;;;;4957036;29;20122;-85
2023/05/04 08:32:23;;;;;;;13.18;9.55;;;;;;;;;;4943948;29;20046;-85
2023/05/04 08:34:50;;;;;;;25.48;12.23;;;;;;;;;;4929164;29;20031;-85
2023/05/04 08:37:16;;;;;;;20.23;12.40;;;;;;;;;;4951063;29;20048;-84
2023/05/04 08:39:43;;;;;;;18.42;11.00;;;;;;;;;;4942254;29;20414;-85
2023/05/04 08:42:09;;;;;;;12.10;10.23;;;;;;;;;;4936072;29;20038;-85
2023/05/04 08:44:35;;;;;;;14.82;8.55;;;;;;;;;;4950247;29;20434;-85
2023/05/04 08:47:03;;;;;;;13.82;10.10;;;;;;;;;;4943029;29;20027;-85
2023/05/04 08:49:29;;;;;;;14.10;11.40;;;;;;;;;;4939426;29;20035;-85
2023/05/04 08:51:59;;;;;;;13.07;9.63;;;;;;;;;;4923423;29;20453;-84
2023/05/04 08:54:25;;;;;;;15.13;10.60;;;;;;;;;;4950756;29;20043;-86
2023/05/04 08:56:53;;;;;;;16.23;11.85;;;;;;;;;;4942987;29;20031;-86
2023/05/04 08:59:21;;;;;;;16.08;11.27;;;;;;;;;;4955149;29;20106;-89
2023/05/04 09:01:50;;;;;;;14.98;11.13;;;;;;;;;;4954351;29;20103;-86
2023/05/04 09:04:17;;;;;;;28.40;16.80;;;;;;;;;;4961558;28;20108;-88
2023/05/04 09:06:43;;;;;;;16.73;12.02;;;;;;;;;;4961932;29;20035;-87
2023/05/04 09:09:10;;;;;;;61.55;26.48;;;;;;;;;;4961194;29;20027;-86
2023/05/04 09:11:36;;;;;;;36.28;19.52;;;;;;;;;;4954412;29;20043;-86
2023/05/04 09:14:02;;;;;;;17.25;11.52;;;;;;;;;;4942629;29;20031;-86
2023/05/04 09:16:37;;;;;;;19.35;12.13;;;;;;;;;;4947111;29;20529;-86
2023/05/04 09:19:04;;;;;;;15.50;11.23;;;;;;;;;;4941677;29;20040;-95
2023/05/04 09:21:31;;;;;;;16.58;11.63;;;;;;;;;;4950870;29;20063;-93
2023/05/04 09:23:57;;;;;;;16.90;11.07;;;;;;;;;;4943748;29;20550;-93
2023/05/04 09:26:27;;;;;;;14.35;10.18;;;;;;;;;;4959637;29;20027;-94
2023/05/04 09:28:53;;;;;;;17.20;11.65;;;;;;;;;;4942776;29;20055;-86
2023/05/04 09:31:22;;;;;;;19.05;10.95;;;;;;;;;;4948285;29;20058;-95
2023/05/04 09:33:48;;;;;;;17.65;12.70;;;;;;;;;;4942967;29;20084;-95
2023/05/04 09:36:15;;;;;;;15.90;11.20;;;;;;;;;;4938286;29;20439;-96
2023/05/04 09:38:42;;;;;;;17.73;12.43;;;;;;;;;;4924072;29;20040;-94
2023/05/04 09:41:08;;;;;;;15.60;11.05;;;;;;;;;;4924744;29;20028;-95
2023/05/04 09:43:41;;;;;;;17.70;11.95;;;;;;;;;;4924554;29;20020;-96
2023/05/04 09:46:12;;;;;;;18.80;11.30;;;;;;;;;;4923162;29;20024;-94
2023/05/04 09:48:38;;;;;;;22.10;13.47;;;;;;;;;;4938006;29;20136;-94
2023/05/04 09:51:06;;;;;;;24.75;13.57;;;;;;;;;;4923456;29;20368;-94
2023/05/04 09:53:32;;;;;;;16.48;12.27;;;;;;;;;;4937866;29;20075;-93
2023/05/04 09:55:58;;;;;;;16.67;11.85;;;;;;;;;;4923010;29;20028;-94
2023/05/04 09:58:25;;;;;;;14.50;11.20;;;;;;;;;;4922850;29;20123;-93
2023/05/04 10:00:55;;;;;;;16.92;11.38;;;;;;;;;;4937631;29;20061;-93
2023/05/04 10:03:22;;;;;;;14.95;11.73;;;;;;;;;;4923346;29;20036;-94
2023/05/04 10:05:49;;;;;;;14.60;11.65;;;;;;;;;;4938001;29;20095;-93
2023/05/04 10:08:16;;;;;;;48.67;16.58;;;;;;;;;;4937918;29;20047;-93
2023/05/04 10:10:44;;;;;;;16.02;11.88;;;;;;;;;;4937591;29;20416;-93
2023/05/04 10:13:10;;;;;;;15.75;12.05;;;;;;;;;;4922588;29;20323;-94
2023/05/04 10:15:39;;;;;;;13.35;10.20;;;;;;;;;;4936774;29;20036;-94
2023/05/04 10:18:15;;;;;;;14.20;10.73;;;;;;;;;;4937264;29;20028;-91
2023/05/04 10:20:50;;;;;;;13.63;10.73;;;;;;;;;;4922682;29;20040;-94
2023/05/04 10:23:22;;;;;;;11.60;10.15;;;;;;;;;;4937561;29;20031;-94
2023/05/04 10:25:58;;;;;;;14.95;10.50;;;;;;;;;;4937404;29;20327;-94
2023/05/04 10:28:26;;;;;;;13.43;11.77;;;;;;;;;;4922360;29;20024;-94
2023/05/04 10:31:08;;;;;;;17.88;11.93;;;;;;;;;;4922283;29;20490;-94
2023/05/04 10:33:38;;;;;;;14.95;11.73;;;;;;;;;;4937080;29;20119;-93
2023/05/04 10:36:04;;;;;;;15.65;11.07;;;;;;;;;;4937094;29;20059;-94
2023/05/04 10:38:31;;;;;;;12.63;11.18;;;;;;;;;;4937249;29;20068;-94
2023/05/04 10:40:57;;;;;;;22.80;13.18;;;;;;;;;;4936836;29;20024;-94
2023/05/04 10:43:23;;;;;;;12.93;11.43;;;;;;;;;;4935076;29;20028;-93
2023/05/04 10:45:50;;;;;;;15.80;11.48;;;;;;;;;;4921093;29;20075;-93
2023/05/04 10:48:16;;;;;;;12.35;10.90;;;;;;;;;;4922065;29;20028;-94
2023/05/04 10:50:43;;;;;;;13.45;11.73;;;;;;;;;;4922113;29;20036;-94
2023/05/04 10:53:09;;;;;;;13.82;10.77;;;;;;;;;;4921018;29;20111;-93
2023/05/04 10:55:40;;;;;;;12.48;10.90;;;;;;;;;;4920352;29;20028;-92
2023/05/04 10:58:06;;;;;;;13.37;11.30;;;;;;;;;;4936700;29;20128;-94
2023/05/04 11:00:46;;;;;;;14.85;11.55;;;;;;;;;;4936992;29;20119;-94
2023/05/04 11:06:23;;;;;;;14.20;10.95;;;;;;;;;;4921954;29;20055;-93
2023/05/04 11:08:58;;;;;;;14.77;10.65;;;;;;;;;;4921859;29;20119;-93
2023/05/04 11:11:25;;;;;;;12.45;11.05;;;;;;;;;;4921943;29;20037;-93
2023/05/04 11:13:51;;;;;;;14.15;10.98;;;;;;;;;;4936694;29;20080;-93
2023/05/04 11:19:21;;;;;;;13.95;11.13;;;;;;;;;;4902820;29;20100;-94
2023/05/04 11:21:47;;;;;;;13.63;11.10;;;;;;;;;;4902733;29;20033;-93
2023/05/04 11:24:13;;;;;;;14.90;10.80;;;;;;;;;;4902720;29;20024;-93
2023/05/04 11:26:47;;;;;;;13.18;10.85;;;;;;;;;;4901707;29;20323;-93
2023/05/04 11:29:13;;;;;;;14.63;10.90;;;;;;;;;;4901720;29;20420;-93
2023/05/04 11:31:39;;;;;;;11.50;10.30;;;;;;;;;;4901581;29;20357;-93
2023/05/04 11:34:06;;;;;;;16.67;9.93;;;;;;;;;;4901887;29;20536;-94
2023/05/04 11:36:38;;;;;;;13.80;10.75;;;;;;;;;;4917120;29;20051;-93
2023/05/04 11:39:07;;;;;;;13.02;10.23;;;;;;;;;;4901569;29;20032;-93
2023/05/04 11:41:33;;;;;;;15.13;11.05;;;;;;;;;;4901493;29;20021;-93
2023/05/04 11:44:00;;;;;;;12.18;10.18;;;;;;;;;;4902542;29;20054;-94
2023/05/04 11:46:27;;;;;;;12.25;11.00;;;;;;;;;;4902596;29;20089;-93
2023/05/04 11:48:53;;;;;;;13.45;11.38;;;;;;;;;;4901483;29;20029;-93
2023/05/04 11:51:23;;;;;;;14.25;10.88;;;;;;;;;;4901388;29;20064;-93
2023/05/04 11:53:49;;;;;;;18.17;11.38;;;;;;;;;;4902457;29;20054;-93
2023/05/04 11:56:16;;;;;;;14.07;11.20;;;;;;;;;;4902283;29;20049;-94
2023/05/04 11:58:44;;;;;;;13.65;10.82;;;;;;;;;;4901443;29;20036;-93
2023/05/04 12:01:10;;;;;;;11.05;9.43;;;;;;;;;;4901998;29;20096;-95
2023/05/04 12:03:38;;;;;;;11.77;9.43;;;;;;;;;;4917500;29;20031;-95
2023/05/04 12:06:06;;;;;;;10.73;8.82;;;;;;;;;;4916866;29;20032;-95
2023/05/04 12:08:33;;;;;;;15.25;9.68;;;;;;;;;;4902158;29;20048;-95
2023/05/04 12:11:09;;;;;;;12.48;8.75;;;;;;;;;;4916987;29;20067;-95
2023/05/04 12:13:35;;;;;;;12.55;9.30;;;;;;;;;;4916974;29;20051;-95
2023/05/04 12:16:15;;;;;;;12.60;8.95;;;;;;;;;;4902388;29;20028;-95
2023/05/04 12:18:41;;;;;;;12.35;9.23;;;;;;;;;;4902488;29;20059;-95
2023/05/04 12:21:08;;;;;;;9.85;8.52;;;;;;;;;;4918994;29;20350;-96
2023/05/04 12:23:35;;;;;;;10.98;8.63;;;;;;;;;;4918755;29;20024;-96
2023/05/04 12:26:01;;;;;;;14.80;9.18;;;;;;;;;;4902854;29;20403;-94
2023/05/04 12:28:29;;;;;;;11.13;8.45;;;;;;;;;;4903447;29;20069;-95
2023/05/04 12:30:55;;;;;;;10.27;7.95;;;;;;;;;;4902746;29;20032;-96
2023/05/04 12:33:21;;;;;;;12.15;9.07;;;;;;;;;;4917586;29;20044;-96
2023/05/04 12:35:47;;;;;;;15.50;8.55;;;;;;;;;;4917753;29;20048;-95
2023/05/04 12:38:13;;;;;;;16.20;8.48;;;;;;;;;;4902633;29;20040;-95
2023/05/04 12:40:40;;;;;;;14.80;7.85;;;;;;;;;;4904307;29;20032;-95
2023/05/04 12:43:06;;;;;;;10.82;7.82;;;;;;;;;;4920508;29;20028;-96
2023/05/04 12:45:33;;;;;;;13.27;8.60;;;;;;;;;;4920276;29;20416;-95
2023/05/04 12:48:01;;;;;;;12.30;8.23;;;;;;;;;;4904987;29;20081;-96
2023/05/04 12:50:27;;;;;;;11.55;8.23;;;;;;;;;;4905395;29;20040;-95
2023/05/04 12:52:53;;;;;;;13.85;8.30;;;;;;;;;;4920170;29;20025;-96
2023/05/04 12:55:20;;;;;;;11.55;8.20;;;;;;;;;;4920131;29;20025;-95
2023/05/04 12:57:47;;;;;;;13.85;9.88;;;;;;;;;;4905345;29;20028;-95
2023/05/04 13:00:14;;;;;;;62.55;11.68;;;;;;;;;;4920139;29;20124;-95
2023/05/04 13:02:40;;;;;;;13.18;9.30;;;;;;;;;;4904982;29;20031;-88
2023/05/04 13:05:07;;;;;;;13.45;8.40;;;;;;;;;;4919795;29;20047;-89
2023/05/04 13:07:38;;;;;;;16.13;7.55;;;;;;;;;;4919707;29;20080;-88
2023/05/04 13:10:04;;;;;;;16.23;8.40;;;;;;;;;;4904835;29;20024;-87
2023/05/04 13:12:30;;;;;;;10.20;7.55;;;;;;;;;;4904796;29;20073;-87
2023/05/04 13:14:57;;;;;;;13.13;7.90;;;;;;;;;;4904984;29;20039;-88
2023/05/04 13:17:23;;;;;;;14.73;8.45;;;;;;;;;;4916440;29;20040;-85
2023/05/04 13:19:49;;;;;;;12.35;8.05;;;;;;;;;;4919433;29;20411;-80
2023/05/04 13:22:16;;;;;;;12.50;8.68;;;;;;;;;;4937370;29;20040;-80
2023/05/04 13:24:42;;;;;;;13.25;8.40;;;;;;;;;;4922940;29;20028;-80
2023/05/04 13:27:08;;;;;;;11.90;9.00;;;;;;;;;;4922896;29;20032;-81
2023/05/04 13:29:34;;;;;;;15.10;8.63;;;;;;;;;;4921870;29;20039;-80
2023/05/04 13:32:00;;;;;;;13.73;8.55;;;;;;;;;;4922654;29;20044;-78
2023/05/04 13:34:26;;;;;;;14.30;8.40;;;;;;;;;;4932344;29;20051;-78
2023/05/04 13:36:52;;;;;;;11.25;7.95;;;;;;;;;;4936319;29;20052;-78
2023/05/04 13:39:20;;;;;;;11.93;7.93;;;;;;;;;;4922631;29;20084;-79
2023/05/04 13:41:56;;;;;;;12.48;7.88;;;;;;;;;;4907890;29;20032;-79
2023/05/04 13:44:23;;;;;;;9.18;7.35;;;;;;;;;;4903844;29;20086;-79
2023/05/04 13:46:49;;;;;;;16.00;7.78;;;;;;;;;;4903368;29;20028;-79
2023/05/04 13:49:15;;;;;;;8.80;7.38;;;;;;;;;;4912914;29;20028;-79
2023/05/04 13:51:42;;;;;;;13.25;7.90;;;;;;;;;;4922225;29;20028;-79
2023/05/04 13:54:08;;;;;;;11.07;8.40;;;;;;;;;;4922174;29;20038;-79
2023/05/04 13:56:36;;;;;;;10.50;7.55;;;;;;;;;;4922595;29;20059;-80
2023/05/04 13:59:04;;;;;;;11.85;9.55;;;;;;;;;;4922340;29;20043;-81
2023/05/04 14:01:30;;;;;;;16.60;11.73;;;;;;;;;;4922413;29;20154;-80
2023/05/04 14:03:56;;;;;;;12.43;7.43;;;;;;;;;;4917886;29;20020;-81
2023/05/04 14:06:23;;;;;;;8.73;7.22;;;;;;;;;;4922171;29;20055;-81
2023/05/04 14:08:49;;;;;;;8.77;6.80;;;;;;;;;;4922106;29;20059;-81
2023/05/04 14:11:15;;;;;;;11.75;7.43;;;;;;;;;;4953131;29;20324;-81
2023/05/04 14:13:41;;;;;;;10.48;6.25;;;;;;;;;;4922154;29;20039;-81
2023/05/04 14:16:07;;;;;;;9.75;7.03;;;;;;;;;;4922146;29;20058;-81
2023/05/04 14:18:33;;;;;;;8.80;6.45;;;;;;;;;;4922088;29;20029;-81
2023/05/04 14:20:59;;;;;;;8.07;6.15;;;;;;;;;;4921994;29;20080;-81
2023/05/04 14:23:25;;;;;;;9.38;6.70;;;;;;;;;;4952544;29;20043;-81
2023/05/04 14:25:51;;;;;;;8.80;6.10;;;;;;;;;;4952411;29;20020;-80
2023/05/04 14:28:18;;;;;;;10.77;6.65;;;;;;;;;;4921851;29;20383;-80
2023/05/04 14:30:44;;;;;;;9.65;7.60;;;;;;;;;;4922005;29;20060;-80
2023/05/04 14:33:10;;;;;;;14.40;7.45;;;;;;;;;;4921876;29;20039;-80
2023/05/04 14:35:42;;;;;;;60.55;11.00;;;;;;;;;;4927287;29;20044;-80
2023/05/04 14:38:08;;;;;;;12.50;7.45;;;;;;;;;;4955534;29;20333;-80
2023/05/04 14:40:34;;;;;;;9.93;7.65;;;;;;;;;;4940558;29;20331;-81
2023/05/04 14:43:00;;;;;;;10.73;7.43;;;;;;;;;;4939725;29;20430;-80
2023/05/04 14:45:26;;;;;;;13.82;7.80;;;;;;;;;;4940174;29;20024;-80
2023/05/04 14:47:52;;;;;;;10.32;7.47;;;;;;;;;;4940285;29;20051;-80
2023/05/04 14:50:19;;;;;;;8.75;6.80;;;;;;;;;;4940303;29;20034;-80
2023/05/04 14:52:45;;;;;;;9.25;7.05;;;;;;;;;;4940203;29;20042;-80
2023/05/04 14:55:11;;;;;;;10.30;7.20;;;;;;;;;;4940216;29;20403;-81
2023/05/04 14:57:38;;;;;;;10.10;6.93;;;;;;;;;;4940442;29;20059;-79
2023/05/04 15:00:06;;;;;;;9.07;6.88;;;;;;;;;;4954331;29;20036;-77
2023/05/04 15:02:33;;;;;;;12.15;7.10;;;;;;;;;;4954519;28;20024;-80
2023/05/04 15:05:01;;;;;;;10.90;6.75;;;;;;;;;;4940210;29;20438;-78
2023/05/04 15:07:27;;;;;;;12.98;6.70;;;;;;;;;;4955209;29;20035;-76
2023/05/04 15:09:53;;;;;;;19.23;7.72;;;;;;;;;;4939023;29;20119;-77
2023/05/04 15:12:20;;;;;;;12.70;7.03;;;;;;;;;;4922867;29;20079;-76
2023/05/04 15:14:46;;;;;;;15.27;7.38;;;;;;;;;;4935728;29;20035;-77
2023/05/04 15:17:12;;;;;;;14.60;6.93;;;;;;;;;;4954739;29;20299;-77
2023/05/04 15:19:38;;;;;;;9.93;6.95;;;;;;;;;;4938114;29;20359;-77
2023/05/04 15:22:05;;;;;;;10.57;6.63;;;;;;;;;;4939878;29;20419;-77